Time;durP1;ratioP1;P1;durP2;ratioP2;P2;SDS_P1;SDS_P2;PMS_P1;PMS_P2;Temp;Humidity;BMP_temperature;BMP_pressure;BME280_temperature;BME280_humidity;BME280_pressure;Samples;Min_cycle;Max_cycle;Signal;HPM_P1;HPM_P2
2022/07/16 00:06:14;;;;;;;5.75;2.05;;;;;;;18.04;63.32;102108.59;10415377;28;20132;-73
2022/07/16 00:11:14;;;;;;;2.17;2.08;;;;;;;17.82;65.22;102108.03;10415628;28;20045;-73
2022/07/16 00:16:14;;;;;;;2.70;2.50;;;;;;;17.73;65.88;102108.47;10414482;28;20045;-74
2022/07/16 00:21:15;;;;;;;2.83;2.38;;;;;;;17.66;70.70;102108.50;10419392;28;20083;-73
2022/07/16 00:26:17;;;;;;;2.83;1.85;;;;;;;17.69;68.79;102109.97;10411334;28;20033;-73
2022/07/16 00:31:17;;;;;;;2.33;2.13;;;;;;;17.65;69.17;102096.69;10430554;28;20029;-75
2022/07/16 00:36:18;;;;;;;3.92;2.53;;;;;;;17.67;69.32;102097.31;10429591;28;20120;-73
2022/07/16 00:41:19;;;;;;;2.97;2.20;;;;;;;17.74;69.82;102105.53;10412235;28;20099;-73
2022/07/16 00:46:20;;;;;;;3.38;1.70;;;;;;;17.74;69.07;102105.53;10428262;28;20044;-73
2022/07/16 00:51:22;;;;;;;3.03;2.50;;;;;;;17.70;69.90;102107.00;10430215;28;20346;-77
2022/07/16 00:56:23;;;;;;;10.20;2.72;;;;;;;17.72;69.77;102104.88;10427835;28;20140;-73
2022/07/16 01:01:23;;;;;;;3.97;2.67;;;;;;;17.86;70.25;102103.81;10428404;28;20116;-73
2022/07/16 01:06:24;;;;;;;5.82;3.42;;;;;;;17.99;68.88;102113.03;10410755;28;20113;-73
2022/07/16 01:11:24;;;;;;;9.65;4.20;;;;;;;18.05;68.37;102112.16;10428393;28;20437;-73
2022/07/16 01:16:25;;;;;;;2.92;2.58;;;;;;;18.13;69.80;102106.44;10411618;28;20044;-73
2022/07/16 01:21:26;;;;;;;2.97;2.67;;;;;;;18.26;69.19;102102.81;10428065;28;20044;-73
2022/07/16 01:26:27;;;;;;;4.18;2.92;;;;;;;18.31;72.01;102098.34;10428717;28;20033;-74
2022/07/16 01:31:27;;;;;;;4.07;2.58;;;;;;;18.40;69.29;102109.88;10409772;28;20038;-73
2022/07/16 01:36:29;;;;;;;3.22;2.92;;;;;;;18.46;70.46;102108.16;10421250;28;20053;-74
2022/07/16 01:41:29;;;;;;;15.00;3.58;;;;;;;18.54;70.12;102105.16;10421207;28;20470;-73
2022/07/16 01:46:30;;;;;;;3.60;2.30;;;;;;;18.54;69.84;102105.16;10420290;28;20116;-71
2022/07/16 01:51:30;;;;;;;9.63;2.47;;;;;;;18.45;70.41;102115.56;10420483;28;20049;-70
2022/07/16 01:56:30;;;;;;;17.63;2.55;;;;;;;18.25;70.56;102112.94;10403634;28;20072;-70
2022/07/16 02:01:31;;;;;;;7.15;3.20;;;;;;;18.02;70.09;102116.19;10419651;28;20041;-72
2022/07/16 02:06:31;;;;;;;9.75;2.90;;;;;;;17.77;70.51;102118.84;10401640;28;20112;-70
2022/07/16 02:11:32;;;;;;;1.63;1.52;;;;;;;17.59;75.68;102119.47;10403798;28;20457;-71
2022/07/16 02:16:32;;;;;;;2.58;2.20;;;;;;;17.57;76.07;102120.72;10401956;28;20124;-70
2022/07/16 02:21:32;;;;;;;11.90;3.15;;;;;;;17.52;73.34;102134.25;10387197;28;20038;-70
2022/07/16 02:26:33;;;;;;;7.43;1.98;;;;;;;17.39;73.88;102135.09;10402571;28;20127;-71
2022/07/16 02:31:34;;;;;;;3.95;1.65;;;;;;;17.32;73.93;102139.72;10420232;28;20389;-70
2022/07/16 02:36:35;;;;;;;5.13;2.63;;;;;;;17.26;74.27;102140.56;10418246;28;20037;-70
2022/07/16 02:41:35;;;;;;;3.35;1.63;;;;;;;17.12;75.08;102151.53;10401072;28;20030;-70
2022/07/16 02:46:35;;;;;;;6.18;1.70;;;;;;;17.16;74.35;102157.41;10384259;28;20052;-71
2022/07/16 02:51:36;;;;;;;8.10;1.60;;;;;;;17.20;74.87;102158.72;10402622;28;20087;-72
2022/07/16 02:56:37;;;;;;;1.98;1.75;;;;;;;17.10;75.41;102164.59;10419900;28;20076;-72
2022/07/16 03:01:37;;;;;;;3.25;1.38;;;;;;;17.04;76.01;102168.19;10419726;28;20041;-71
2022/07/16 03:06:37;;;;;;;2.20;1.20;;;;;;;16.94;76.57;102163.13;10400252;28;20045;-71
2022/07/16 03:11:38;;;;;;;3.03;1.85;;;;;;;16.78;76.97;102166.22;10417658;28;20095;-70
2022/07/16 03:16:38;;;;;;;3.28;2.13;;;;;;;16.68;75.58;102165.75;10417429;28;20049;-71
2022/07/16 03:21:40;;;;;;;1.38;1.30;;;;;;;16.57;75.86;102182.78;10415468;28;20048;-70
2022/07/16 03:26:40;;;;;;;1.30;1.20;;;;;;;16.51;76.91;102181.72;10399214;28;20437;-71
2022/07/16 03:31:40;;;;;;;1.95;1.55;;;;;;;16.43;77.54;102176.41;10417976;28;20038;-71
2022/07/16 03:36:41;;;;;;;1.85;1.75;;;;;;;16.40;77.90;102193.22;10416010;28;20030;-71
2022/07/16 03:41:42;;;;;;;2.00;1.73;;;;;;;16.38;78.45;102195.34;10415336;28;20390;-71
2022/07/16 03:46:42;;;;;;;6.90;2.30;;;;;;;16.49;77.52;102201.03;10416434;28;20080;-70
2022/07/16 03:51:42;;;;;;;1.70;1.60;;;;;;;16.67;80.21;102197.75;10416801;28;20527;-72
2022/07/16 03:56:43;;;;;;;7.55;2.00;;;;;;;16.98;79.07;102209.22;10380308;28;20259;-70
2022/07/16 04:01:43;;;;;;;2.35;1.70;;;;;;;17.02;81.00;102210.47;10414905;28;20074;-71
2022/07/16 04:06:44;;;;;;;1.27;1.27;;;;;;;16.88;84.52;102215.94;10415838;28;20033;-71
2022/07/16 04:11:45;;;;;;;5.60;1.50;;;;;;;16.89;82.19;102217.63;10415672;28;20470;-71
2022/07/16 04:16:45;;;;;;;1.70;1.60;;;;;;;16.91;82.27;102229.22;10415535;28;20052;-71
2022/07/16 04:21:46;;;;;;;11.60;2.40;;;;;;;16.91;80.34;102228.34;10414881;28;20045;-71
2022/07/16 04:26:46;;;;;;;4.18;1.20;;;;;;;16.94;81.88;102234.25;10414176;28;20072;-72
2022/07/16 04:31:48;;;;;;;6.13;1.85;;;;;;;16.96;80.76;102243.09;10416327;28;20096;-71
2022/07/16 04:36:48;;;;;;;4.47;1.35;;;;;;;16.84;79.24;102247.47;10414997;28;20040;-70
2022/07/16 04:41:49;;;;;;;1.05;1.05;;;;;;;16.71;79.98;102256.44;10415066;28;20133;-71
2022/07/16 04:46:49;;;;;;;2.70;1.73;;;;;;;16.70;85.22;102262.16;10414457;28;20037;-70
2022/07/16 04:51:50;;;;;;;1.42;1.30;;;;;;;16.74;83.42;102257.94;10397235;28;20040;-71
2022/07/16 04:56:50;;;;;;;1.73;1.63;;;;;;;17.63;83.04;102267.81;10415212;28;20045;-71
2022/07/16 05:01:50;;;;;;;0.90;0.90;;;;;;;18.39;83.67;102253.56;10414723;28;20064;-71
2022/07/16 05:06:51;;;;;;;1.25;1.05;;;;;;;19.10;80.24;102257.25;10415581;28;20073;-71
2022/07/16 05:11:51;;;;;;;3.13;1.42;;;;;;;19.70;78.24;102260.41;10422305;28;20033;-71
2022/07/16 05:16:51;;;;;;;1.25;1.20;;;;;;;19.98;76.13;102265.41;10422338;28;20057;-72
2022/07/16 05:21:52;;;;;;;6.03;1.30;;;;;;;20.37;74.31;102268.81;10423112;28;20037;-71
2022/07/16 05:26:52;;;;;;;1.80;1.65;;;;;;;20.74;72.20;102272.41;10424868;28;20042;-71
2022/07/16 05:31:53;;;;;;;1.48;1.30;;;;;;;21.18;70.95;102275.78;10423021;28;20064;-71
2022/07/16 05:36:53;;;;;;;3.53;1.48;;;;;;;21.46;69.88;102280.66;10403233;28;20079;-71
2022/07/16 05:41:53;;;;;;;1.77;1.45;;;;;;;21.59;68.20;102279.63;10404625;28;20041;-71
2022/07/16 05:46:54;;;;;;;2.60;1.10;;;;;;;21.65;68.22;102297.97;10419842;28;20060;-70
2022/07/16 05:51:54;;;;;;;5.88;1.77;;;;;;;21.50;66.56;102290.13;10403121;28;20128;-71
2022/07/16 05:56:55;;;;;;;1.45;1.35;;;;;;;21.55;63.89;102292.19;10420040;28;20061;-71
2022/07/16 06:01:55;;;;;;;3.75;1.75;;;;;;;21.38;63.67;102302.22;10420315;28;20521;-70
2022/07/16 06:06:57;;;;;;;3.05;1.17;;;;;;;21.13;63.08;102301.28;10402521;28;20033;-71
2022/07/16 06:11:57;;;;;;;3.55;2.13;;;;;;;21.49;63.30;102312.44;10420378;28;20037;-70
2022/07/16 06:16:57;;;;;;;0.98;0.98;;;;;;;21.72;60.00;102311.63;10420722;28;20113;-71
2022/07/16 06:21:58;;;;;;;1.17;1.08;;;;;;;21.26;59.77;102318.69;10418732;28;20370;-71
2022/07/16 06:26:58;;;;;;;4.68;1.83;;;;;;;21.52;59.79;102337.59;10403090;28;20099;-72
2022/07/16 06:32:00;;;;;;;1.27;1.17;;;;;;;22.28;55.75;102335.91;10419040;28;20065;-68
2022/07/16 06:37:00;;;;;;;1.60;1.48;;;;;;;23.35;57.23;102340.06;10419911;28;20040;-67
2022/07/16 06:42:01;;;;;;;2.25;1.60;;;;;;;22.99;53.55;102349.59;10418511;28;20354;-64
2022/07/16 06:47:01;;;;;;;1.50;1.42;;;;;;;22.32;56.05;102352.00;10418354;28;20116;-65
2022/07/16 06:52:02;;;;;;;1.65;1.45;;;;;;;22.60;55.78;102365.06;10418314;28;20141;-65
2022/07/16 06:57:02;;;;;;;1.00;1.00;;;;;;;22.83;55.36;102369.69;10418148;28;20056;-66
2022/07/16 07:02:03;;;;;;;6.50;1.50;;;;;;;23.12;50.54;102357.59;10417861;28;20116;-66
2022/07/16 07:07:03;;;;;;;1.38;1.15;;;;;;;23.85;48.44;102371.66;10416449;28;20172;-67
2022/07/16 07:12:04;;;;;;;2.92;1.25;;;;;;;24.14;46.61;102359.41;10401482;28;20531;-67
2022/07/16 07:17:04;;;;;;;6.38;1.25;;;;;;;24.14;46.87;102380.72;10417720;28;20043;-67
2022/07/16 07:22:04;;;;;;;6.82;1.40;;;;;;;24.58;46.91;102386.38;10416144;28;20080;-63
2022/07/16 07:27:05;;;;;;;7.90;1.23;;;;;;;24.75;43.99;102392.72;10417379;28;20065;-63
2022/07/16 07:32:06;;;;;;;10.30;2.05;;;;;;;25.37;44.46;102383.25;10417082;28;20480;-65
2022/07/16 07:37:06;;;;;;;2.92;1.75;;;;;;;24.86;47.22;102392.88;10399263;28;20039;-66
2022/07/16 07:42:06;;;;;;;4.40;2.00;;;;;;;25.11;45.05;102392.31;10415514;28;20048;-65
2022/07/16 07:47:07;;;;;;;3.30;2.15;;;;;;;25.70;44.60;102397.97;10383696;28;20116;-72
2022/07/16 07:52:09;;;;;;;1.23;1.15;;;;;;;26.43;43.87;102395.53;10417325;28;20362;-72
2022/07/16 07:57:09;;;;;;;5.50;1.85;;;;;;;26.55;39.73;102401.75;10399034;28;20064;-71
2022/07/16 08:02:09;;;;;;;2.38;1.30;;;;;;;26.22;41.30;102411.19;10415438;28;20065;-71
2022/07/16 08:07:10;;;;;;;2.08;1.88;;;;;;;26.63;42.60;102417.06;10398225;28;20116;-72
2022/07/16 08:12:10;;;;;;;0.82;0.80;;;;;;;27.16;42.14;102409.56;10401101;28;20370;-72
2022/07/16 08:17:11;;;;;;;2.47;1.67;;;;;;;27.75;40.79;102423.03;10422288;28;20029;-71
2022/07/16 08:22:12;;;;;;;2.60;1.45;;;;;;;27.77;39.99;102425.59;10424840;28;20377;-72
2022/07/16 08:27:12;;;;;;;2.13;1.42;;;;;;;28.25;37.70;102428.94;10417209;28;20033;-71
2022/07/16 08:32:12;;;;;;;1.55;1.45;;;;;;;27.63;36.47;102432.75;10415652;28;20442;-70
2022/07/16 08:37:13;;;;;;;1.90;1.42;;;;;;;28.07;37.28;102446.19;10415141;28;20496;-71
2022/07/16 08:42:13;;;;;;;2.35;1.45;;;;;;;28.37;38.69;102446.19;10416192;28;20042;-72
2022/07/16 08:47:14;;;;;;;1.77;1.15;;;;;;;28.02;36.81;102449.84;10422992;28;20049;-70
2022/07/16 08:52:14;;;;;;;3.38;1.80;;;;;;;26.97;37.28;102462.00;10405810;28;20381;-72
2022/07/16 08:57:15;;;;;;;1.40;1.35;;;;;;;27.50;36.49;102462.78;10411214;28;20049;-71
2022/07/16 09:02:15;;;;;;;2.35;1.75;;;;;;;27.78;34.41;102466.22;10423537;28;20376;-74
2022/07/16 09:07:16;;;;;;;1.50;1.20;;;;;;;27.88;38.21;102474.59;10421928;28;20061;-75
2022/07/16 09:12:33;;;;;;;1.13;1.00;;;;;;;28.05;36.47;102477.97;10422278;28;20029;-75
2022/07/16 09:17:33;;;;;;;2.67;1.58;;;;;;;28.23;36.82;102489.66;10422889;28;20036;-73
2022/07/16 09:22:36;;;;;;;2.65;1.30;;;;;;;28.70;35.30;102485.75;10422567;28;20048;-74
2022/07/16 09:27:39;;;;;;;1.55;1.45;;;;;;;28.71;34.60;102492.97;10404000;28;20380;-71
2022/07/16 09:32:39;;;;;;;2.90;2.00;;;;;;;28.72;35.41;102486.31;10420218;28;20067;-72
2022/07/16 09:37:54;;;;;;;1.50;1.40;;;;;;;29.17;35.01;102507.66;10421165;28;20084;-72
2022/07/16 09:42:54;;;;;;;7.05;1.17;;;;;;;29.30;36.74;102503.44;10421155;28;20088;-71
2022/07/16 09:47:56;;;;;;;1.10;1.05;;;;;;;29.50;37.18;102519.25;10420962;28;20064;-70
2022/07/16 09:52:56;;;;;;;3.60;1.48;;;;;;;29.44;36.57;102512.84;10418334;28;20033;-70
2022/07/16 09:58:02;;;;;;;3.95;1.30;;;;;;;29.33;35.26;102516.00;10419390;28;20081;-72
2022/07/16 10:03:02;;;;;;;3.70;0.97;;;;;;;29.24;35.63;102520.47;10403779;28;20033;-75
2022/07/16 10:08:04;;;;;;;2.47;1.75;;;;;;;30.04;36.41;102523.16;10419476;28;20373;-75
2022/07/16 10:13:05;;;;;;;1.77;1.42;;;;;;;29.53;34.56;102515.06;10424901;28;20033;-75
2022/07/16 10:18:31;;;;;;;2.00;1.90;;;;;;;29.61;35.53;102517.25;10427595;28;20472;-75
2022/07/16 10:23:31;;;;;;;2.75;1.15;;;;;;;28.95;33.35;102533.09;10419722;28;20037;-73
2022/07/16 10:28:56;;;;;;;1.65;0.93;;;;;;;29.25;35.11;102525.75;10419324;28;20037;-75
2022/07/16 10:34:15;;;;;;;5.75;1.30;;;;;;;29.64;35.48;102530.63;10420751;28;20037;-74
2022/07/16 10:39:15;;;;;;;3.28;1.83;;;;;;;29.86;34.35;102536.66;10418948;28;20037;-75
2022/07/16 10:44:16;;;;;;;7.63;2.08;;;;;;;29.85;34.86;102551.75;10401611;28;20026;-75
2022/07/16 10:49:16;;;;;;;1.25;1.15;;;;;;;29.79;34.16;102550.09;10401952;28;20115;-74
2022/07/16 10:54:18;;;;;;;2.83;1.63;;;;;;;29.78;34.55;102548.44;10419950;28;20087;-73
2022/07/16 10:59:26;;;;;;;1.25;1.15;;;;;;;29.56;34.13;102553.56;10418243;28;20426;-67
2022/07/16 11:04:30;;;;;;;5.70;1.48;;;;;;;29.57;34.16;102560.81;10417796;28;20034;-71
2022/07/16 11:09:31;;;;;;;1.55;1.45;;;;;;;29.72;34.28;102562.72;10417152;28;20032;-73
2022/07/16 11:14:32;;;;;;;2.65;1.60;;;;;;;29.52;34.49;102572.00;10417522;28;20491;-73
2022/07/16 11:19:37;;;;;;;6.68;1.40;;;;;;;29.93;34.51;102555.91;10400695;28;20033;-72
2022/07/16 11:24:48;;;;;;;1.40;1.35;;;;;;;29.64;33.14;102562.22;10399522;28;20033;-74
2022/07/16 11:29:57;;;;;;;1.33;1.27;;;;;;;29.80;33.82;102567.69;10416715;28;20037;-72
2022/07/16 11:35:04;;;;;;;3.83;1.77;;;;;;;30.15;33.14;102563.84;10418770;28;20116;-72
2022/07/16 11:40:05;;;;;;;1.58;1.45;;;;;;;29.80;34.40;102568.56;10399340;28;20033;-70
2022/07/16 11:45:06;;;;;;;0.90;0.90;;;;;;;30.02;34.74;102567.28;10415675;28;20048;-69
2022/07/16 11:50:07;;;;;;;1.33;1.27;;;;;;;29.85;33.57;102568.50;10398202;28;20396;-73
2022/07/16 11:55:09;;;;;;;1.08;1.05;;;;;;;29.33;32.47;102569.00;10399077;28;20056;-70
2022/07/16 12:00:10;;;;;;;1.00;0.98;;;;;;;29.40;33.68;102578.72;10398032;28;20057;-70
2022/07/16 12:05:10;;;;;;;1.75;1.42;;;;;;;29.44;32.11;102576.22;10415865;28;20520;-71
2022/07/16 12:10:10;;;;;;;17.70;2.10;;;;;;;29.81;33.31;102575.81;10416606;28;20103;-72
2022/07/16 12:15:14;;;;;;;1.00;0.85;;;;;;;30.22;34.60;102569.16;10415837;28;20306;-71
2022/07/16 12:20:21;;;;;;;1.15;0.95;;;;;;;29.92;33.64;102584.13;10415738;28;20079;-71
2022/07/16 12:25:28;;;;;;;1.23;1.13;;;;;;;29.80;34.32;102579.72;10415317;28;20030;-72
2022/07/16 12:30:35;;;;;;;1.52;1.10;;;;;;;29.53;33.69;102596.00;10414976;28;20083;-72
2022/07/16 12:35:47;;;;;;;1.63;1.45;;;;;;;29.37;34.77;102587.69;10422068;28;20346;-71
2022/07/16 12:40:48;;;;;;;3.47;1.08;;;;;;;29.20;33.74;102581.59;10422700;28;20036;-72
2022/07/16 12:45:49;;;;;;;1.73;1.63;;;;;;;28.89;33.75;102590.00;10419301;28;20038;-72
2022/07/16 12:50:49;;;;;;;1.30;0.90;;;;;;;28.89;33.89;102603.94;10415876;28;20080;-71
2022/07/16 13:01:09;;;;;;;2.20;1.25;;;;;;;28.74;34.57;102609.50;10414536;28;20279;-71
2022/07/16 13:06:10;;;;;;;1.55;1.45;;;;;;;28.66;34.67;102596.97;10415111;28;20038;-70
2022/07/16 13:11:11;;;;;;;1.70;1.30;;;;;;;28.54;34.80;102596.41;10416688;28;20465;-72
2022/07/16 13:16:11;;;;;;;3.00;1.45;;;;;;;28.56;34.26;102591.41;10415585;28;20469;-72
2022/07/16 13:21:12;;;;;;;1.70;1.60;;;;;;;28.77;34.61;102599.75;10415810;28;20116;-70
2022/07/16 13:26:12;;;;;;;2.42;1.30;;;;;;;28.90;34.42;102593.59;10413933;28;20050;-72
2022/07/16 13:31:13;;;;;;;1.75;1.05;;;;;;;29.07;33.24;102607.28;10405304;28;20037;-69
2022/07/16 13:36:14;;;;;;;3.38;1.60;;;;;;;28.42;33.82;102593.88;10388997;28;20124;-72
2022/07/16 13:41:14;;;;;;;8.23;1.75;;;;;;;28.01;34.74;102604.91;10422694;28;20461;-71
2022/07/16 13:46:14;;;;;;;1.25;1.23;;;;;;;28.13;36.08;102606.63;10388869;28;20033;-73
2022/07/16 13:51:15;;;;;;;1.10;1.00;;;;;;;28.26;36.29;102589.38;10421696;28;20065;-71
2022/07/16 13:56:15;;;;;;;4.10;2.00;;;;;;;28.16;35.96;102606.09;10422053;28;20087;-73
2022/07/16 14:01:16;;;;;;;1.73;1.63;;;;;;;27.52;35.93;102605.25;10422817;28;20056;-73
2022/07/16 14:06:17;;;;;;;3.60;1.60;;;;;;;27.36;35.07;102598.78;10423495;28;20469;-74
2022/07/16 14:11:18;;;;;;;1.38;1.27;;;;;;;27.29;35.09;102616.84;10426981;28;20129;-73
2022/07/16 14:16:18;;;;;;;1.60;1.50;;;;;;;27.51;35.78;102614.72;10425472;28;20394;-71
2022/07/16 14:21:19;;;;;;;2.53;1.98;;;;;;;27.25;35.63;102610.13;10423422;28;20036;-70
2022/07/16 14:26:20;;;;;;;1.85;1.45;;;;;;;26.85;35.74;102622.59;10427054;28;20037;-69
2022/07/16 14:31:21;;;;;;;1.95;1.33;;;;;;;26.75;36.17;102619.75;10422716;28;20029;-71
2022/07/16 14:36:21;;;;;;;3.50;1.37;;;;;;;26.65;36.44;102615.78;10403528;28;20045;-69
2022/07/16 14:41:21;;;;;;;1.55;1.35;;;;;;;26.31;36.50;102619.84;10418294;28;20369;-69
2022/07/16 14:46:22;;;;;;;2.67;1.05;;;;;;;26.10;36.56;102621.56;10420932;28;20112;-70
2022/07/16 14:51:22;;;;;;;1.67;1.13;;;;;;;25.83;36.45;102621.53;10419770;28;20112;-69
2022/07/16 14:56:23;;;;;;;1.20;1.10;;;;;;;25.77;37.35;102622.53;10417606;28;20420;-70
2022/07/16 15:01:23;;;;;;;7.25;2.13;;;;;;;25.74;37.89;102612.78;10419504;28;20159;-68
2022/07/16 15:06:24;;;;;;;1.20;1.13;;;;;;;25.77;37.80;102620.59;10420926;28;20037;-70
2022/07/16 15:11:24;;;;;;;2.05;1.10;;;;;;;25.43;37.88;102619.84;10435094;28;20073;-69
2022/07/16 15:16:27;;;;;;;1.63;1.05;;;;;;;25.31;38.11;102611.66;10416411;28;20041;-69
2022/07/16 15:21:27;;;;;;;1.05;1.05;;;;;;;24.80;38.66;102613.63;10419869;28;20038;-68
2022/07/16 15:26:27;;;;;;;1.45;1.35;;;;;;;24.68;38.72;102619.22;10417602;28;20481;-68
2022/07/16 15:31:28;;;;;;;3.45;1.30;;;;;;;24.61;38.99;102617.72;10418478;28;20034;-69
2022/07/16 15:36:28;;;;;;;1.58;1.17;;;;;;;24.42;39.27;102623.47;10432867;28;20044;-69
2022/07/16 15:41:29;;;;;;;3.28;1.38;;;;;;;24.26;39.20;102627.03;10415714;28;20037;-69
2022/07/16 15:46:29;;;;;;;0.88;0.88;;;;;;;24.04;39.32;102629.63;10416913;28;20060;-68
2022/07/16 15:51:32;;;;;;;3.92;2.05;;;;;;;23.54;39.74;102635.72;10415169;28;20048;-69
2022/07/16 15:56:33;;;;;;;9.48;1.23;;;;;;;23.26;40.16;102629.03;10415012;28;20088;-68
2022/07/16 16:01:33;;;;;;;2.30;1.55;;;;;;;23.13;40.62;102632.00;10415787;28;20041;-68
2022/07/16 16:06:34;;;;;;;2.58;1.10;;;;;;;23.09;40.73;102641.88;10398880;28;20472;-70
2022/07/16 16:11:34;;;;;;;8.48;2.50;;;;;;;23.03;40.65;102631.78;10414246;28;20037;-70
2022/07/16 16:16:35;;;;;;;1.80;1.50;;;;;;;23.01;40.72;102634.78;10415449;28;20461;-69
2022/07/16 16:21:36;;;;;;;1.80;1.45;;;;;;;22.81;41.21;102642.50;10397071;28;20030;-68
2022/07/16 16:26:36;;;;;;;5.25;1.65;;;;;;;22.39;41.45;102635.06;10397309;28;20038;-69
2022/07/16 16:31:37;;;;;;;1.15;1.05;;;;;;;21.69;41.45;102626.44;10415049;28;20041;-68
2022/07/16 16:36:37;;;;;;;2.05;1.40;;;;;;;21.14;41.38;102628.03;10415134;28;20112;-69
2022/07/16 16:41:37;;;;;;;15.02;2.45;;;;;;;20.83;41.92;102619.81;10416803;28;20041;-69
2022/07/16 16:46:38;;;;;;;1.23;1.10;;;;;;;20.50;42.21;102615.38;10417929;28;20335;-69
2022/07/16 16:51:38;;;;;;;3.80;1.88;;;;;;;20.27;43.16;102615.13;10414989;28;20123;-68
2022/07/16 16:56:39;;;;;;;1.40;0.98;;;;;;;20.01;43.88;102610.59;10379769;28;20060;-69
2022/07/16 17:01:39;;;;;;;2.22;1.33;;;;;;;19.85;44.97;102614.69;10413429;28;20077;-69
2022/07/16 17:06:41;;;;;;;5.53;1.27;;;;;;;19.78;44.16;102622.94;10403355;28;20073;-68
2022/07/16 17:11:41;;;;;;;2.05;1.90;;;;;;;19.70;44.34;102639.69;10422487;28;20030;-68
2022/07/16 17:16:42;;;;;;;1.17;1.17;;;;;;;19.52;46.55;102635.66;10421710;28;20041;-69
2022/07/16 17:21:42;;;;;;;1.85;1.55;;;;;;;19.38;46.76;102635.94;10420704;28;20029;-69
2022/07/16 17:26:43;;;;;;;2.80;1.92;;;;;;;19.19;48.21;102632.16;10404721;28;20048;-70
2022/07/16 17:31:43;;;;;;;8.65;1.67;;;;;;;19.27;46.52;102642.91;10407630;28;20456;-69
2022/07/16 17:36:44;;;;;;;5.82;2.03;;;;;;;19.28;46.14;102642.69;10423073;28;20401;-69
2022/07/16 17:41:44;;;;;;;5.93;1.85;;;;;;;19.20;46.63;102653.06;10421554;28;20030;-69
2022/07/16 17:46:45;;;;;;;3.72;1.27;;;;;;;19.03;49.16;102653.50;10421212;28;20057;-69
2022/07/16 17:51:45;;;;;;;1.35;1.25;;;;;;;18.97;49.60;102659.81;10404106;28;20116;-68
2022/07/16 17:56:45;;;;;;;5.07;2.00;;;;;;;18.91;47.82;102659.81;10421736;28;20053;-69
2022/07/16 18:01:46;;;;;;;6.95;3.05;;;;;;;18.87;48.63;102666.78;10420370;28;20033;-70
2022/07/16 18:06:46;;;;;;;3.60;1.83;;;;;;;18.86;47.84;102665.09;10435686;28;20072;-69
2022/07/16 18:11:47;;;;;;;3.33;1.77;;;;;;;18.75;48.47;102669.31;10421627;28;20385;-69
2022/07/16 18:16:49;;;;;;;5.00;1.95;;;;;;;18.59;50.63;102667.75;10420365;28;20424;-68
2022/07/16 18:21:49;;;;;;;5.65;1.42;;;;;;;18.55;51.03;102663.75;10418181;28;20041;-69
2022/07/16 18:26:50;;;;;;;5.75;1.73;;;;;;;18.49;49.67;102668.16;10418343;28;20147;-69
2022/07/16 18:31:51;;;;;;;2.55;1.35;;;;;;;18.37;51.12;102672.56;10418013;28;20099;-69
2022/07/16 18:36:52;;;;;;;2.78;1.58;;;;;;;18.30;49.45;102680.78;10434833;28;20033;-69
2022/07/16 18:41:53;;;;;;;4.10;1.95;;;;;;;18.09;53.70;102667.19;10417414;28;20063;-69
2022/07/16 18:46:53;;;;;;;5.80;2.55;;;;;;;18.06;51.09;102686.78;10418212;28;20472;-69
2022/07/16 18:51:55;;;;;;;2.28;1.50;;;;;;;17.94;51.43;102677.47;10418758;28;20449;-70
2022/07/16 18:56:55;;;;;;;4.72;1.60;;;;;;;17.85;50.24;102674.88;10416957;28;20111;-69
2022/07/16 19:01:56;;;;;;;2.47;1.67;;;;;;;17.72;50.81;102674.78;10418631;28;20065;-69
2022/07/16 19:06:56;;;;;;;2.17;1.27;;;;;;;17.58;52.01;102667.50;10418601;28;20060;-69
2022/07/16 19:11:57;;;;;;;5.50;2.28;;;;;;;17.46;51.59;102669.13;10418238;28;20095;-68
2022/07/16 19:16:57;;;;;;;1.63;1.52;;;;;;;17.31;50.44;102670.06;10416875;28;20040;-68
2022/07/16 19:21:58;;;;;;;1.88;1.40;;;;;;;17.23;50.43;102662.03;10417967;28;20484;-69
2022/07/16 19:26:58;;;;;;;4.85;2.00;;;;;;;17.10;50.83;102661.91;10432987;28;20038;-68
2022/07/16 19:31:59;;;;;;;5.05;2.38;;;;;;;17.07;51.36;102678.72;10417150;28;20449;-69
2022/07/16 19:37:00;;;;;;;1.85;1.38;;;;;;;16.98;51.00;102682.66;10417446;28;20146;-69
2022/07/16 19:42:00;;;;;;;8.65;1.35;;;;;;;16.85;51.35;102681.50;10416513;28;20389;-68
2022/07/16 19:47:00;;;;;;;4.50;1.15;;;;;;;16.68;51.45;102675.38;10416926;28;20034;-68
2022/07/16 19:52:01;;;;;;;3.00;1.27;;;;;;;16.54;51.79;102684.50;10416481;28;20049;-68
2022/07/16 20:02:20;;;;;;;2.08;1.55;;;;;;;16.31;53.61;102676.47;10418710;28;20393;-69
2022/07/16 20:07:21;;;;;;;7.35;1.77;;;;;;;16.20;53.33;102682.41;10414468;28;20025;-68
2022/07/16 20:12:21;;;;;;;2.95;2.10;;;;;;;16.10;53.45;102692.78;10415374;28;20033;-69
2022/07/16 20:17:23;;;;;;;1.30;1.23;;;;;;;15.94;53.43;102682.91;10415426;28;20114;-68
2022/07/16 20:22:25;;;;;;;8.23;1.58;;;;;;;15.88;54.57;102703.63;10430785;28;20036;-69
2022/07/16 20:27:26;;;;;;;5.93;5.35;;;;;;;15.87;54.26;102707.41;10416074;28;20037;-69
2022/07/16 20:32:26;;;;;;;4.82;2.22;;;;;;;15.85;54.65;102712.22;10414013;28;20033;-68
2022/07/16 20:37:27;;;;;;;1.90;1.40;;;;;;;15.81;54.51;102705.44;10416045;28;20083;-69
2022/07/16 20:42:27;;;;;;;1.23;1.15;;;;;;;15.77;54.57;102715.91;10422385;28;20419;-65
2022/07/16 20:47:27;;;;;;;8.80;1.70;;;;;;;15.68;55.28;102714.28;10424498;28;20046;-65
2022/07/16 20:52:28;;;;;;;4.63;1.38;;;;;;;15.59;55.64;102707.19;10422651;28;20041;-66
2022/07/16 20:57:28;;;;;;;4.20;2.67;;;;;;;15.54;55.99;102710.47;10423149;28;20136;-65
2022/07/16 21:02:28;;;;;;;3.05;1.95;;;;;;;15.52;56.10;102708.97;10422946;28;20064;-65
2022/07/16 21:07:30;;;;;;;6.72;2.17;;;;;;;15.45;56.04;102725.25;10404747;28;20061;-65
2022/07/16 21:12:30;;;;;;;2.88;1.77;;;;;;;15.38;56.52;102724.28;10421870;28;20033;-66
2022/07/16 21:17:31;;;;;;;5.07;2.08;;;;;;;15.34;56.30;102725.69;10423170;28;20033;-66
2022/07/16 21:22:33;;;;;;;22.75;2.22;;;;;;;15.32;56.65;102739.53;10403761;28;20076;-65
2022/07/16 21:27:33;;;;;;;2.42;1.67;;;;;;;15.25;56.36;102743.16;10421822;28;20037;-65
2022/07/16 21:32:34;;;;;;;5.85;1.75;;;;;;;15.13;57.12;102734.56;10403488;28;20500;-65
2022/07/16 21:37:34;;;;;;;1.67;1.40;;;;;;;15.11;57.48;102726.56;10421607;28;20519;-66
2022/07/16 21:42:35;;;;;;;13.23;2.17;;;;;;;15.11;57.21;102726.56;10422475;28;20369;-64
2022/07/16 21:47:35;;;;;;;6.03;1.88;;;;;;;15.03;57.45;102728.53;10404777;28;20052;-66
2022/07/16 21:52:36;;;;;;;4.03;1.85;;;;;;;14.97;58.23;102724.63;10402223;28;20087;-65
2022/07/16 21:57:36;;;;;;;11.13;2.45;;;;;;;14.91;58.76;102728.09;10420536;28;20052;-68
2022/07/16 22:02:37;;;;;;;3.33;2.20;;;;;;;14.82;59.05;102730.00;10403027;28;20396;-69
2022/07/16 22:07:37;;;;;;;3.47;2.17;;;;;;;14.79;59.44;102726.81;10420752;28;20049;-69
2022/07/16 22:12:38;;;;;;;1.75;1.65;;;;;;;14.71;59.28;102733.16;10402529;28;20065;-68
2022/07/16 22:17:38;;;;;;;4.80;2.30;;;;;;;14.70;59.57;102738.78;10402473;28;20029;-69
2022/07/16 22:22:39;;;;;;;1.65;1.52;;;;;;;14.65;59.72;102731.16;10420242;28;20041;-69
2022/07/16 22:27:39;;;;;;;2.97;2.13;;;;;;;14.58;60.31;102730.16;10420906;28;20036;-68
2022/07/16 22:32:40;;;;;;;2.05;1.80;;;;;;;14.58;60.14;102736.50;10419902;28;20095;-69
2022/07/16 22:37:41;;;;;;;6.40;2.08;;;;;;;14.53;60.38;102738.88;10401714;28;20112;-70
2022/07/16 22:42:42;;;;;;;5.13;2.28;;;;;;;14.43;60.52;102733.63;10419985;28;20145;-68
2022/07/16 22:47:42;;;;;;;7.20;2.55;;;;;;;14.39;60.98;102745.09;10387358;28;20108;-69
2022/07/16 22:52:42;;;;;;;5.97;2.45;;;;;;;14.36;61.69;102743.56;10419551;28;20154;-68
2022/07/16 22:57:43;;;;;;;8.00;5.25;;;;;;;14.30;61.71;102743.41;10420224;28;20133;-69
2022/07/16 23:02:43;;;;;;;7.93;5.05;;;;;;;14.21;61.23;102737.16;10401231;28;20053;-69
2022/07/16 23:07:44;;;;;;;2.30;2.17;;;;;;;14.18;61.51;102737.50;10401863;28;20458;-69
2022/07/16 23:12:44;;;;;;;4.25;2.25;;;;;;;14.22;62.61;102748.88;10417916;28;20038;-69
2022/07/16 23:17:45;;;;;;;17.92;3.42;;;;;;;14.24;62.15;102755.03;10417177;28;20033;-69